Time;durP1;ratioP1;P1;durP2;ratioP2;P2;SDS_P1;SDS_P2;PMS_P1;PMS_P2;Temp;Humidity;BMP_temperature;BMP_pressure;BME280_temperature;BME280_humidity;BME280_pressure;Samples;Min_cycle;Max_cycle;Signal;HPM_P1;HPM_P2
2023/07/02 00:02:22;;;;;;;14.23;11.13;;;20.20;99.90;;;;;;5007378;28;20042;-74
2023/07/02 00:04:48;;;;;;;14.38;11.13;;;20.20;99.90;;;;;;4992821;28;20038;-73
2023/07/02 00:07:14;;;;;;;12.80;11.27;;;20.20;99.90;;;;;;4992576;28;20049;-73
2023/07/02 00:09:41;;;;;;;18.60;12.07;;;20.20;99.90;;;;;;4992876;28;20058;-74
2023/07/02 00:12:07;;;;;;;14.80;11.82;;;20.00;99.90;;;;;;4991210;28;20045;-74
2023/07/02 00:14:33;;;;;;;14.70;12.02;;;20.10;99.90;;;;;;4992816;28;20030;-74
2023/07/02 00:16:59;;;;;;;15.68;11.80;;;20.10;99.90;;;;;;4992018;28;20411;-74
2023/07/02 00:19:26;;;;;;;13.60;11.52;;;20.10;99.90;;;;;;4992771;28;20486;-74
2023/07/02 00:21:53;;;;;;;14.27;12.18;;;20.00;99.90;;;;;;4992651;28;20034;-74
2023/07/02 00:24:19;;;;;;;14.00;11.65;;;20.00;99.90;;;;;;4992826;28;20065;-74
2023/07/02 00:26:45;;;;;;;16.48;12.00;;;20.00;99.90;;;;;;4992533;28;20042;-74
2023/07/02 00:29:11;;;;;;;15.30;11.73;;;20.00;99.90;;;;;;4992743;28;20038;-74
2023/07/02 00:31:37;;;;;;;15.73;12.15;;;20.00;99.90;;;;;;4992011;28;20050;-74
2023/07/02 00:34:04;;;;;;;16.10;12.10;;;19.90;99.90;;;;;;4992604;28;20040;-74
2023/07/02 00:36:30;;;;;;;18.98;13.00;;;19.90;99.90;;;;;;4992246;28;20054;-74
2023/07/02 00:38:56;;;;;;;15.13;11.85;;;19.90;99.90;;;;;;5007377;28;20070;-74
2023/07/02 00:41:23;;;;;;;18.05;12.25;;;19.80;99.90;;;;;;4992333;28;20037;-74
2023/07/02 00:43:49;;;;;;;15.10;12.32;;;19.80;99.90;;;;;;4992488;28;20038;-74
2023/07/02 00:46:22;;;;;;;15.55;12.65;;;19.80;99.90;;;;;;4991987;28;20522;-73
2023/07/02 00:48:50;;;;;;;16.50;12.77;;;19.70;99.90;;;;;;4992861;28;20037;-73
2023/07/02 00:51:20;;;;;;;17.80;13.05;;;19.70;99.90;;;;;;4992108;28;20061;-74
2023/07/02 00:53:47;;;;;;;16.05;12.80;;;19.70;99.90;;;;;;4992384;28;20026;-74
2023/07/02 00:56:14;;;;;;;20.40;13.40;;;19.70;99.90;;;;;;4992256;28;20045;-73
2023/07/02 00:58:46;;;;;;;16.25;13.38;;;19.70;99.90;;;;;;5007483;28;20031;-74
2023/07/02 01:01:17;;;;;;;17.00;13.90;;;19.70;99.90;;;;;;4992314;28;20043;-74
2023/07/02 01:03:56;;;;;;;16.60;12.60;;;19.70;99.90;;;;;;4992814;28;20046;-74
2023/07/02 01:06:26;;;;;;;17.48;14.35;;;19.70;99.90;;;;;;4992644;28;20388;-74
2023/07/02 01:08:56;;;;;;;15.55;13.75;;;19.70;99.90;;;;;;4976132;28;20349;-74
2023/07/02 01:11:43;;;;;;;15.35;13.65;;;19.60;99.90;;;;;;4986259;28;20026;-74
2023/07/02 01:14:21;;;;;;;20.02;14.32;;;19.60;99.90;;;;;;5010309;28;20041;-74
2023/07/02 01:16:47;;;;;;;18.85;13.88;;;19.60;99.90;;;;;;5009127;28;20037;-74
2023/07/02 01:19:21;;;;;;;17.73;13.85;;;19.60;99.90;;;;;;4995817;28;20027;-74
2023/07/02 01:21:47;;;;;;;17.55;14.13;;;19.50;99.90;;;;;;4995552;28;20031;-74
2023/07/02 01:24:14;;;;;;;18.85;14.75;;;19.50;99.90;;;;;;5010279;28;20035;-74
2023/07/02 01:26:40;;;;;;;18.42;13.77;;;19.50;99.90;;;;;;5010264;28;20042;-74
2023/07/02 01:29:36;;;;;;;24.42;13.70;;;19.40;99.90;;;;;;5010761;28;20030;-74
2023/07/02 01:32:02;;;;;;;18.60;13.50;;;19.40;99.90;;;;;;4994621;28;20026;-74
2023/07/02 01:34:28;;;;;;;19.13;13.93;;;19.30;99.90;;;;;;4995516;28;20380;-74
2023/07/02 01:36:54;;;;;;;17.65;13.80;;;19.20;99.90;;;;;;5009427;28;20057;-74
2023/07/02 01:39:21;;;;;;;17.50;13.45;;;19.20;99.90;;;;;;4995238;28;20031;-73
2023/07/02 01:41:54;;;;;;;17.88;13.73;;;19.20;99.90;;;;;;4995227;28;20041;-74
2023/07/02 01:44:20;;;;;;;17.67;13.70;;;19.30;99.90;;;;;;4994981;28;20034;-74
2023/07/02 01:46:49;;;;;;;17.70;13.85;;;19.20;99.90;;;;;;4994487;28;20119;-74
2023/07/02 01:49:18;;;;;;;18.70;14.13;;;19.20;99.90;;;;;;4995011;28;20045;-74
2023/07/02 01:51:51;;;;;;;17.80;13.23;;;19.20;99.90;;;;;;4993529;28;20030;-74
2023/07/02 01:54:18;;;;;;;18.30;14.05;;;19.20;99.90;;;;;;4994945;28;20030;-74
2023/07/02 01:56:44;;;;;;;17.13;14.27;;;19.20;99.90;;;;;;4994846;28;20023;-73
2023/07/02 01:59:11;;;;;;;19.48;13.57;;;19.10;99.90;;;;;;4994597;28;20480;-73
2023/07/02 02:01:40;;;;;;;18.10;14.30;;;19.10;99.90;;;;;;4985976;28;20043;-74
2023/07/02 02:04:09;;;;;;;17.80;12.75;;;19.10;99.90;;;;;;4985849;28;20061;-74
2023/07/02 02:06:36;;;;;;;17.90;13.88;;;19.10;99.90;;;;;;4992580;28;20483;-73
2023/07/02 02:09:04;;;;;;;18.45;13.52;;;19.10;99.90;;;;;;4993119;28;20041;-75
2023/07/02 02:11:40;;;;;;;18.05;13.52;;;19.10;99.90;;;;;;4992785;28;20061;-74
2023/07/02 02:14:06;;;;;;;18.30;13.90;;;19.10;99.90;;;;;;5008170;28;20537;-74
2023/07/02 02:16:35;;;;;;;20.20;14.20;;;19.10;99.90;;;;;;4992457;28;20122;-74
2023/07/02 02:19:01;;;;;;;17.85;14.25;;;19.00;99.90;;;;;;4992830;28;20026;-74
2023/07/02 02:21:28;;;;;;;22.25;14.50;;;19.00;99.90;;;;;;4992341;28;20463;-74
2023/07/02 02:23:54;;;;;;;20.42;14.10;;;19.00;99.90;;;;;;4992963;28;20046;-74
2023/07/02 02:26:21;;;;;;;19.95;13.18;;;19.00;99.90;;;;;;4992585;28;20418;-73
2023/07/02 02:28:48;;;;;;;18.58;13.77;;;19.00;99.90;;;;;;4993155;28;20065;-74
2023/07/02 02:31:15;;;;;;;17.17;13.68;;;18.90;99.90;;;;;;4992087;28;20042;-73
2023/07/02 02:33:41;;;;;;;19.52;14.13;;;18.90;99.90;;;;;;4992817;28;20022;-73
2023/07/02 02:36:07;;;;;;;20.25;14.65;;;18.90;99.90;;;;;;4992479;28;20037;-74
2023/07/02 02:38:34;;;;;;;24.85;14.65;;;18.80;99.90;;;;;;4993954;28;20104;-74
2023/07/02 02:41:01;;;;;;;23.05;14.18;;;18.80;99.90;;;;;;4993405;28;20042;-74
2023/07/02 02:43:27;;;;;;;19.85;13.70;;;18.80;99.90;;;;;;4994313;28;20438;-74
2023/07/02 02:45:53;;;;;;;21.40;13.82;;;18.80;99.90;;;;;;4993508;28;20037;-74
2023/07/02 02:48:22;;;;;;;17.13;13.32;;;18.80;99.90;;;;;;4993990;28;20027;-74
2023/07/02 02:50:48;;;;;;;19.65;13.23;;;18.80;99.90;;;;;;4993381;28;20047;-74
2023/07/02 02:53:14;;;;;;;22.25;14.63;;;18.70;99.90;;;;;;5009227;28;20030;-74
2023/07/02 02:55:40;;;;;;;19.63;14.02;;;18.70;99.90;;;;;;4992254;28;20046;-74
2023/07/02 02:58:06;;;;;;;18.67;14.27;;;18.70;99.90;;;;;;4993748;28;20029;-74
2023/07/02 03:00:32;;;;;;;16.65;13.60;;;18.70;99.90;;;;;;5008312;28;20042;-73
2023/07/02 03:02:59;;;;;;;20.95;13.80;;;18.70;99.90;;;;;;4993686;28;20459;-73
2023/07/02 03:05:26;;;;;;;18.90;13.95;;;18.60;99.90;;;;;;4993034;28;20049;-74
2023/07/02 03:07:52;;;;;;;19.50;13.50;;;18.60;99.90;;;;;;4993716;28;20038;-74
2023/07/02 03:10:18;;;;;;;17.98;14.15;;;18.60;99.90;;;;;;4993366;28;20035;-74
2023/07/02 03:12:44;;;;;;;17.95;13.35;;;18.60;99.90;;;;;;4993801;28;20415;-74
2023/07/02 03:15:10;;;;;;;19.67;14.27;;;18.50;99.90;;;;;;4993119;28;20050;-74
2023/07/02 03:17:36;;;;;;;22.20;14.05;;;18.50;99.90;;;;;;4993416;28;20034;-74
2023/07/02 03:20:07;;;;;;;20.88;13.70;;;18.50;99.90;;;;;;5008296;28;20403;-74
2023/07/02 03:22:34;;;;;;;15.48;13.20;;;18.50;99.90;;;;;;4993368;28;20407;-74
2023/07/02 03:25:00;;;;;;;23.45;14.05;;;18.50;99.90;;;;;;4993201;28;20395;-73
2023/07/02 03:27:26;;;;;;;18.73;13.52;;;18.50;99.90;;;;;;4993169;28;20535;-74
2023/07/02 03:29:52;;;;;;;15.38;13.00;;;18.50;99.90;;;;;;4992878;28;20034;-74
2023/07/02 03:32:19;;;;;;;19.20;14.00;;;18.50;99.90;;;;;;4992569;28;20031;-74
2023/07/02 03:34:45;;;;;;;18.98;13.63;;;18.40;99.90;;;;;;4992730;28;20042;-74
2023/07/02 03:37:11;;;;;;;17.42;13.48;;;18.40;99.90;;;;;;4992838;28;20415;-74
2023/07/02 03:39:37;;;;;;;18.00;13.63;;;18.40;99.90;;;;;;4993803;28;20046;-74
2023/07/02 03:42:05;;;;;;;15.85;13.38;;;18.40;99.90;;;;;;4992697;28;20416;-74
2023/07/02 03:44:31;;;;;;;16.63;13.48;;;18.30;99.90;;;;;;4993087;28;20057;-73
2023/07/02 03:46:57;;;;;;;17.08;12.80;;;18.30;99.90;;;;;;4992274;28;20046;-74
2023/07/02 03:49:23;;;;;;;17.60;13.48;;;18.30;99.90;;;;;;4992575;28;20372;-74
2023/07/02 03:51:50;;;;;;;16.30;12.75;;;18.30;99.90;;;;;;4993188;28;20026;-73
2023/07/02 03:54:16;;;;;;;16.48;13.27;;;18.20;99.90;;;;;;4992964;28;20475;-73
2023/07/02 03:56:42;;;;;;;16.05;12.93;;;18.20;99.90;;;;;;4992696;28;20043;-74
2023/07/02 03:59:08;;;;;;;18.33;12.85;;;18.10;99.90;;;;;;4993009;28;20468;-75
2023/07/02 04:01:34;;;;;;;17.15;13.10;;;18.10;99.90;;;;;;4992176;28;20046;-74
2023/07/02 04:04:00;;;;;;;17.10;13.32;;;18.10;99.90;;;;;;4992432;28;20038;-74
2023/07/02 04:06:26;;;;;;;18.23;13.68;;;18.10;99.90;;;;;;4992658;28;20034;-74
2023/07/02 04:08:53;;;;;;;18.52;13.35;;;18.10;99.90;;;;;;5008095;28;20061;-74
2023/07/02 04:11:19;;;;;;;17.38;13.93;;;18.00;99.90;;;;;;4992610;28;20030;-74
2023/07/02 04:13:45;;;;;;;19.70;14.95;;;18.10;99.90;;;;;;4992820;28;20045;-74
2023/07/02 04:16:11;;;;;;;17.75;13.43;;;18.10;99.90;;;;;;4992075;28;20030;-74
2023/07/02 04:18:37;;;;;;;18.88;13.95;;;18.10;99.90;;;;;;4992596;28;20031;-73
2023/07/02 04:21:03;;;;;;;21.73;14.95;;;18.10;99.90;;;;;;4992616;28;20033;-74
2023/07/02 04:23:29;;;;;;;17.88;14.35;;;18.10;99.90;;;;;;4991759;28;20119;-74
2023/07/02 04:25:55;;;;;;;21.27;15.32;;;18.10;99.90;;;;;;4992508;28;20031;-73
2023/07/02 04:28:21;;;;;;;18.67;14.43;;;18.00;99.90;;;;;;4992750;28;20471;-73
2023/07/02 04:30:49;;;;;;;18.48;14.95;;;18.00;99.90;;;;;;4990264;28;20039;-73
2023/07/02 04:33:15;;;;;;;20.00;16.02;;;18.10;99.90;;;;;;4992878;28;20049;-73
2023/07/02 04:35:42;;;;;;;21.00;14.13;;;18.10;99.90;;;;;;4992256;28;20033;-73
2023/07/02 04:38:08;;;;;;;17.63;14.35;;;18.00;99.90;;;;;;4992714;28;20053;-74
2023/07/02 04:40:35;;;;;;;18.58;14.70;;;17.90;99.90;;;;;;4993225;28;20415;-71
2023/07/02 04:43:03;;;;;;;20.85;14.43;;;18.00;99.90;;;;;;4996373;28;20463;-73
2023/07/02 04:45:36;;;;;;;21.90;14.15;;;18.00;99.90;;;;;;4995145;28;20724;-73
2023/07/02 04:48:05;;;;;;;20.05;15.07;;;17.90;99.90;;;;;;4996065;28;20487;-74
2023/07/02 04:50:31;;;;;;;18.80;15.38;;;17.90;99.90;;;;;;4996054;28;20054;-73
2023/07/02 04:52:57;;;;;;;16.42;13.98;;;17.90;99.90;;;;;;4996206;28;20158;-74
2023/07/02 04:55:23;;;;;;;19.65;15.05;;;18.00;99.90;;;;;;4995661;28;20038;-73
2023/07/02 04:57:49;;;;;;;18.75;14.43;;;18.00;99.90;;;;;;4996395;28;20030;-73
2023/07/02 05:00:16;;;;;;;18.13;13.98;;;18.00;99.90;;;;;;4994815;28;20053;-74
2023/07/02 05:02:42;;;;;;;17.45;14.40;;;18.00;99.90;;;;;;4996033;28;20053;-73
2023/07/02 05:05:08;;;;;;;15.85;13.52;;;18.00;99.90;;;;;;4995854;28;20053;-73
2023/07/02 05:07:34;;;;;;;18.33;14.20;;;18.10;99.90;;;;;;4995559;28;20034;-74
2023/07/02 05:10:00;;;;;;;16.13;13.90;;;18.10;99.90;;;;;;4996094;28;20037;-74
2023/07/02 05:12:26;;;;;;;16.20;14.48;;;18.30;99.90;;;;;;4995503;28;20026;-73
2023/07/02 05:14:52;;;;;;;17.65;14.93;;;18.40;99.90;;;;;;4995445;28;20357;-74
2023/07/02 05:17:19;;;;;;;16.48;14.65;;;18.50;99.90;;;;;;4994997;28;20034;-74
2023/07/02 05:19:45;;;;;;;17.63;14.88;;;18.70;99.90;;;;;;4995797;28;20030;-74
2023/07/02 05:22:11;;;;;;;18.23;15.35;;;18.80;99.90;;;;;;4995334;28;20038;-74
2023/07/02 05:24:37;;;;;;;18.50;15.82;;;18.90;99.90;;;;;;4995519;28;20038;-74
2023/07/02 05:27:04;;;;;;;22.20;16.02;;;19.00;99.90;;;;;;4995362;28;20040;-74
2023/07/02 05:29:30;;;;;;;18.20;15.60;;;19.10;99.90;;;;;;4995075;28;20042;-73
2023/07/02 05:31:56;;;;;;;18.10;16.27;;;19.20;99.90;;;;;;4994749;28;20126;-74
2023/07/02 05:34:22;;;;;;;19.20;16.63;;;19.40;99.90;;;;;;4995638;28;20034;-74
2023/07/02 05:36:48;;;;;;;22.20;17.65;;;19.50;99.90;;;;;;4995018;28;20041;-74
2023/07/02 05:39:14;;;;;;;21.85;19.02;;;19.70;99.90;;;;;;4995440;28;20030;-72
2023/07/02 05:41:40;;;;;;;23.05;18.63;;;19.80;99.90;;;;;;4995013;28;20033;-74
2023/07/02 05:44:06;;;;;;;21.63;19.40;;;19.90;99.90;;;;;;5009991;28;20400;-74
2023/07/02 05:46:33;;;;;;;23.52;20.23;;;20.00;99.90;;;;;;4994614;28;20035;-73
2023/07/02 05:48:59;;;;;;;24.17;21.42;;;20.10;99.90;;;;;;4994864;28;20499;-74
2023/07/02 05:51:26;;;;;;;24.63;21.95;;;20.20;99.90;;;;;;4994985;28;20047;-74
2023/07/02 05:53:52;;;;;;;24.35;21.75;;;20.20;99.90;;;;;;5009620;28;20057;-74
2023/07/02 05:56:18;;;;;;;24.90;22.15;;;20.30;99.90;;;;;;4995001;28;20053;-74
2023/07/02 05:58:45;;;;;;;24.08;21.52;;;20.30;99.90;;;;;;5009894;28;20034;-75
2023/07/02 06:01:11;;;;;;;27.00;21.85;;;20.30;99.90;;;;;;4994288;28;20049;-74
2023/07/02 06:03:37;;;;;;;25.80;20.73;;;20.20;99.90;;;;;;4994622;28;20818;-74
2023/07/02 06:06:04;;;;;;;23.40;19.52;;;20.10;99.90;;;;;;4994807;28;20046;-74
2023/07/02 06:08:30;;;;;;;27.30;19.17;;;20.00;99.90;;;;;;4994770;28;20026;-74
2023/07/02 06:10:56;;;;;;;29.65;18.75;;;19.90;99.90;;;;;;4994581;28;20038;-74
2023/07/02 06:13:22;;;;;;;23.42;18.38;;;19.80;99.90;;;;;;4994397;28;20022;-74
2023/07/02 06:15:48;;;;;;;22.30;17.10;;;19.70;99.90;;;;;;4994087;28;20038;-74
2023/07/02 06:18:14;;;;;;;28.80;18.27;;;19.50;99.90;;;;;;4993341;28;20061;-74
2023/07/02 06:20:40;;;;;;;27.20;17.60;;;19.50;99.90;;;;;;4994325;28;20031;-74
2023/07/02 06:23:06;;;;;;;24.35;17.25;;;19.40;99.90;;;;;;4994482;28;20041;-73
2023/07/02 06:25:32;;;;;;;29.35;16.52;;;19.40;99.90;;;;;;4994086;28;20061;-74
2023/07/02 06:27:59;;;;;;;29.58;19.13;;;19.50;99.90;;;;;;4994245;28;20030;-74
2023/07/02 06:30:25;;;;;;;34.30;18.10;;;19.60;99.90;;;;;;4993730;28;20031;-74
2023/07/02 06:32:51;;;;;;;26.02;18.65;;;19.60;99.90;;;;;;5009367;28;20034;-74
2023/07/02 06:35:18;;;;;;;27.50;16.88;;;19.60;99.90;;;;;;5009140;28;20034;-73
2023/07/02 06:37:44;;;;;;;29.05;18.23;;;19.70;99.90;;;;;;4994132;28;20041;-74
2023/07/02 06:40:10;;;;;;;24.23;17.70;;;19.70;99.90;;;;;;4994108;28;20027;-74
2023/07/02 06:42:36;;;;;;;32.63;19.08;;;19.70;99.90;;;;;;5005617;28;20045;-73
2023/07/02 06:45:03;;;;;;;33.58;19.33;;;19.70;99.90;;;;;;4974102;28;20043;-69
2023/07/02 06:47:29;;;;;;;31.00;18.60;;;19.60;99.90;;;;;;5008733;28;20045;-74
2023/07/02 06:49:56;;;;;;;26.60;18.38;;;19.80;99.90;;;;;;4993972;28;20058;-74
2023/07/02 06:52:22;;;;;;;26.50;18.25;;;19.80;99.90;;;;;;4993846;28;20042;-74
2023/07/02 06:54:48;;;;;;;30.80;18.48;;;19.70;99.90;;;;;;4992471;28;20061;-74
2023/07/02 06:57:14;;;;;;;30.27;18.35;;;19.70;99.90;;;;;;4993278;28;20456;-74
2023/07/02 06:59:40;;;;;;;28.38;17.95;;;19.90;99.90;;;;;;4993858;28;20033;-74
2023/07/02 07:02:06;;;;;;;31.13;18.77;;;19.90;99.90;;;;;;4993056;28;20399;-74
2023/07/02 07:04:34;;;;;;;35.85;19.77;;;19.90;99.90;;;;;;4992975;28;20499;-74
2023/07/02 07:07:03;;;;;;;31.75;19.10;;;19.80;99.90;;;;;;4993305;28;20041;-74
2023/07/02 07:09:29;;;;;;;32.33;18.75;;;19.80;99.90;;;;;;4994275;28;20046;-74
2023/07/02 07:11:56;;;;;;;35.03;19.20;;;19.80;99.90;;;;;;4993252;28;20037;-74
2023/07/02 07:14:22;;;;;;;30.17;19.58;;;19.90;99.90;;;;;;4993573;28;20026;-73
2023/07/02 07:16:48;;;;;;;28.73;17.85;;;19.90;99.90;;;;;;4992996;28;20034;-74
2023/07/02 07:19:15;;;;;;;31.55;19.25;;;19.90;99.90;;;;;;4993769;28;20049;-75
2023/07/02 07:21:42;;;;;;;29.45;17.70;;;19.90;99.90;;;;;;5008302;28;20045;-74
2023/07/02 07:24:08;;;;;;;34.95;20.95;;;20.00;99.90;;;;;;4993462;28;20149;-74
2023/07/02 07:26:34;;;;;;;38.05;23.25;;;20.20;99.90;;;;;;4992983;28;20038;-74
2023/07/02 07:29:00;;;;;;;33.97;23.92;;;20.40;99.90;;;;;;4993357;28;20480;-74
2023/07/02 07:31:27;;;;;;;34.58;26.65;;;20.50;99.90;;;;;;4992596;28;20046;-74
2023/07/02 07:33:53;;;;;;;37.05;29.23;;;20.70;99.90;;;;;;4993248;28;20030;-74
2023/07/02 07:36:19;;;;;;;42.03;30.27;;;20.90;99.90;;;;;;4992973;28;20041;-74
2023/07/02 07:38:45;;;;;;;35.40;28.67;;;21.00;99.90;;;;;;4993226;28;20018;-74
2023/07/02 07:41:11;;;;;;;39.83;32.22;;;21.00;99.90;;;;;;4992882;28;20049;-74
2023/07/02 07:43:37;;;;;;;35.78;29.42;;;21.20;99.90;;;;;;4993285;28;20624;-74
2023/07/02 07:46:04;;;;;;;35.85;32.05;;;21.40;99.90;;;;;;4992373;28;20042;-74
2023/07/02 07:48:30;;;;;;;40.35;33.47;;;21.50;99.90;;;;;;4992971;28;20387;-74
2023/07/02 07:50:56;;;;;;;38.17;34.08;;;21.70;99.90;;;;;;4992797;28;20042;-74
2023/07/02 07:53:22;;;;;;;37.42;29.33;;;22.00;99.90;;;;;;4992982;28;20387;-74
2023/07/02 07:55:48;;;;;;;32.15;28.75;;;22.20;99.90;;;;;;4992563;28;20387;-74
2023/07/02 07:58:14;;;;;;;32.80;24.17;;;22.20;99.90;;;;;;4992932;28;20399;-74
2023/07/02 08:00:40;;;;;;;33.63;25.02;;;22.30;99.90;;;;;;5007472;28;20034;-73
2023/07/02 08:03:07;;;;;;;35.15;26.98;;;22.20;99.90;;;;;;5008364;28;20046;-74
2023/07/02 08:05:33;;;;;;;35.20;25.38;;;22.20;99.90;;;;;;4992519;28;20084;-75
2023/07/02 08:07:59;;;;;;;31.67;24.98;;;22.30;99.90;;;;;;4992750;28;20054;-74
2023/07/02 08:10:25;;;;;;;34.80;28.17;;;22.20;99.90;;;;;;4992258;28;20026;-75
2023/07/02 08:12:54;;;;;;;39.28;26.00;;;22.30;99.90;;;;;;4992861;28;20475;-75
2023/07/02 08:15:20;;;;;;;29.38;21.77;;;22.30;99.90;;;;;;4992365;28;20035;-74
2023/07/02 08:17:46;;;;;;;34.50;21.23;;;22.20;99.90;;;;;;4997059;28;20050;-74
2023/07/02 08:20:12;;;;;;;30.02;23.23;;;22.20;99.90;;;;;;4996503;28;20468;-75
2023/07/02 08:22:39;;;;;;;28.65;24.08;;;22.20;99.90;;;;;;4997066;28;20046;-75
2023/07/02 08:25:06;;;;;;;27.38;22.02;;;22.40;99.90;;;;;;4996397;28;20042;-75
2023/07/02 08:27:32;;;;;;;30.17;21.27;;;22.50;99.90;;;;;;5011477;28;20022;-74
2023/07/02 08:29:58;;;;;;;30.77;21.90;;;22.60;99.90;;;;;;4996716;28;20049;-74
2023/07/02 08:32:24;;;;;;;33.05;22.45;;;22.50;99.90;;;;;;5011017;28;20421;-73
2023/07/02 08:34:53;;;;;;;25.70;19.10;;;22.70;99.90;;;;;;4996542;28;20038;-74
2023/07/02 08:37:20;;;;;;;27.40;21.48;;;22.70;99.90;;;;;;4995752;28;20061;-74
2023/07/02 08:39:46;;;;;;;29.65;20.25;;;22.80;99.90;;;;;;4996468;28;20391;-74
2023/07/02 08:42:12;;;;;;;31.75;20.10;;;23.00;99.90;;;;;;4996153;28;20030;-74
2023/07/02 08:44:38;;;;;;;30.77;20.60;;;23.00;99.90;;;;;;4996308;28;20046;-73
2023/07/02 08:47:05;;;;;;;31.27;22.13;;;23.00;99.90;;;;;;4995891;28;20408;-75
2023/07/02 08:49:31;;;;;;;29.52;20.35;;;22.80;99.90;;;;;;5011187;28;20058;-75
2023/07/02 08:51:58;;;;;;;33.85;21.58;;;22.60;99.90;;;;;;4995808;28;20038;-74
2023/07/02 08:54:24;;;;;;;35.15;26.20;;;22.60;99.90;;;;;;4996315;28;20030;-74
2023/07/02 08:56:50;;;;;;;25.83;19.02;;;22.70;99.90;;;;;;4995824;28;20034;-75
2023/07/02 08:59:16;;;;;;;26.90;17.60;;;22.60;99.90;;;;;;4996113;28;20030;-74
2023/07/02 09:01:46;;;;;;;31.60;20.38;;;22.70;99.90;;;;;;4995284;28;20045;-76
2023/07/02 09:04:17;;;;;;;27.45;18.25;;;22.70;99.90;;;;;;4996153;28;20038;-75
2023/07/02 09:06:43;;;;;;;30.15;18.05;;;22.70;99.90;;;;;;4995308;28;20387;-75
2023/07/02 09:09:09;;;;;;;26.02;19.00;;;22.70;99.90;;;;;;4996151;28;20042;-74
2023/07/02 09:11:35;;;;;;;31.15;19.83;;;22.70;99.90;;;;;;5010408;28;20053;-74
2023/07/02 09:14:02;;;;;;;31.40;19.60;;;22.80;99.90;;;;;;5010897;28;20471;-74
2023/07/02 09:16:33;;;;;;;29.33;19.15;;;22.90;99.90;;;;;;4995258;28;20038;-74
2023/07/02 09:19:04;;;;;;;29.48;19.45;;;23.10;99.90;;;;;;4995669;28;20033;-74
2023/07/02 09:21:46;;;;;;;29.70;21.10;;;23.40;99.90;;;;;;4995409;28;20042;-75
2023/07/02 09:24:18;;;;;;;34.15;25.40;;;23.70;99.90;;;;;;4995640;28;20049;-74
2023/07/02 09:26:58;;;;;;;28.10;23.38;;;23.70;99.90;;;;;;5010222;28;20050;-75
2023/07/02 09:29:28;;;;;;;34.83;20.60;;;23.80;99.90;;;;;;4995478;28;20033;-75
2023/07/02 09:31:56;;;;;;;26.92;19.80;;;23.60;99.90;;;;;;4994994;28;20534;-75
2023/07/02 09:34:33;;;;;;;28.88;18.45;;;23.40;99.90;;;;;;4995489;28;20476;-75
2023/07/02 09:36:59;;;;;;;26.65;17.75;;;23.40;99.90;;;;;;4994868;28;20050;-75
2023/07/02 09:39:29;;;;;;;32.53;19.52;;;23.50;99.90;;;;;;4995511;28;20022;-75
2023/07/02 09:41:57;;;;;;;25.25;18.98;;;23.80;99.90;;;;;;4995155;28;20384;-74
2023/07/02 09:44:29;;;;;;;26.13;17.58;;;23.90;99.90;;;;;;5010324;28;20038;-74
2023/07/02 09:47:05;;;;;;;29.27;19.45;;;24.00;99.90;;;;;;4994466;28;20046;-75
2023/07/02 09:49:37;;;;;;;29.00;22.38;;;23.80;99.90;;;;;;4994969;28;20523;-75
2023/07/02 09:52:08;;;;;;;30.35;26.50;;;23.60;99.90;;;;;;4994614;28;20045;-75
2023/07/02 09:54:35;;;;;;;29.13;26.13;;;23.70;99.90;;;;;;4995166;28;20022;-75
2023/07/02 09:57:01;;;;;;;32.92;29.55;;;23.70;99.90;;;;;;4994856;28;20038;-75
2023/07/02 09:59:28;;;;;;;31.95;28.65;;;23.80;99.90;;;;;;5010255;28;20041;-75
2023/07/02 10:01:54;;;;;;;31.27;28.23;;;24.00;99.90;;;;;;4994334;28;20042;-75
2023/07/02 10:04:20;;;;;;;32.35;28.92;;;23.90;99.90;;;;;;4994463;28;20026;-74
2023/07/02 10:06:56;;;;;;;32.50;29.40;;;24.00;99.90;;;;;;4994691;28;20053;-75
2023/07/02 10:09:52;;;;;;;35.53;31.27;;;23.80;99.90;;;;;;4994813;28;20041;-75
2023/07/02 10:12:19;;;;;;;32.70;29.38;;;23.60;99.90;;;;;;4994410;28;20031;-74
2023/07/02 10:14:45;;;;;;;32.28;28.17;;;23.70;99.90;;;;;;4994878;28;20026;-75
2023/07/02 10:17:22;;;;;;;32.40;28.33;;;23.70;99.90;;;;;;5008891;28;20034;-75
2023/07/02 10:19:55;;;;;;;31.95;28.70;;;23.60;99.90;;;;;;5008163;28;20435;-75
2023/07/02 10:22:21;;;;;;;32.75;29.17;;;23.70;99.90;;;;;;4994133;28;20030;-74
2023/07/02 10:24:56;;;;;;;33.55;29.95;;;23.90;99.90;;;;;;4994511;28;20026;-75
2023/07/02 10:27:36;;;;;;;38.03;34.58;;;24.20;99.90;;;;;;4994370;28;20054;-75
2023/07/02 10:30:04;;;;;;;33.67;30.05;;;24.30;98.80;;;;;;4994922;28;20041;-75
2023/07/02 10:32:30;;;;;;;37.45;34.00;;;24.40;99.80;;;;;;5028137;28;20767;-75
2023/07/02 10:34:58;;;;;;;34.67;31.50;;;24.60;99.20;;;;;;5013731;28;20498;-75
2023/07/02 10:37:24;;;;;;;39.65;36.00;;;24.60;98.90;;;;;;5013771;28;20038;-74
2023/07/02 10:39:51;;;;;;;32.75;28.95;;;24.50;98.70;;;;;;5013844;28;20029;-75
2023/07/02 10:42:18;;;;;;;37.45;34.15;;;24.40;99.90;;;;;;5045438;28;20049;-75
2023/07/02 10:44:49;;;;;;;35.35;31.77;;;24.30;99.10;;;;;;5013607;28;20033;-75
2023/07/02 10:47:15;;;;;;;37.83;34.50;;;24.20;99.50;;;;;;5026281;28;20038;-75
2023/07/02 10:49:41;;;;;;;36.00;33.05;;;24.30;99.20;;;;;;4993469;28;20065;-75
2023/07/02 10:52:07;;;;;;;34.33;31.15;;;24.50;98.40;;;;;;4993832;28;20038;-75
2023/07/02 10:54:40;;;;;;;49.58;45.25;;;24.70;98.50;;;;;;4994207;28;20709;-75
2023/07/02 10:57:07;;;;;;;40.90;37.10;;;24.80;97.50;;;;;;4994030;28;20050;-75
2023/07/02 10:59:34;;;;;;;38.17;34.58;;;24.70;97.20;;;;;;4993873;28;20029;-75
2023/07/02 11:02:02;;;;;;;35.53;32.05;;;24.60;97.20;;;;;;5009051;28;20049;-75
2023/07/02 11:04:28;;;;;;;32.88;29.45;;;24.60;97.90;;;;;;5027971;28;20042;-75
2023/07/02 11:06:55;;;;;;;36.88;33.60;;;24.50;98.00;;;;;;5012877;28;20033;-74
2023/07/02 11:09:21;;;;;;;34.17;30.65;;;24.60;97.80;;;;;;5013160;28;20041;-76
2023/07/02 11:11:54;;;;;;;40.47;36.58;;;24.70;97.90;;;;;;5013161;28;20037;-75
2023/07/02 11:14:46;;;;;;;39.53;36.00;;;24.50;96.50;;;;;;5013208;28;20030;-75
2023/07/02 11:17:13;;;;;;;33.38;30.38;;;24.30;97.00;;;;;;5013689;28;20034;-74
2023/07/02 11:19:39;;;;;;;36.80;33.15;;;24.30;98.00;;;;;;5013272;28;20042;-74
2023/07/02 11:22:05;;;;;;;34.42;31.10;;;24.50;97.20;;;;;;5012780;28;20030;-75
2023/07/02 11:24:34;;;;;;;36.67;33.47;;;24.50;97.30;;;;;;5013206;28;20495;-75
2023/07/02 11:27:01;;;;;;;36.58;32.72;;;24.60;97.60;;;;;;5012806;28;20061;-75
2023/07/02 11:29:30;;;;;;;34.67;31.38;;;24.70;97.40;;;;;;5012929;28;20018;-75
2023/07/02 11:32:09;;;;;;;38.42;35.45;;;24.70;97.30;;;;;;5011993;28;20498;-74
2023/07/02 11:34:35;;;;;;;43.55;40.17;;;24.80;96.20;;;;;;5013214;28;20038;-75
2023/07/02 11:37:01;;;;;;;33.67;30.65;;;24.80;95.70;;;;;;5012484;28;20042;-76
2023/07/02 11:39:27;;;;;;;34.13;31.00;;;24.90;96.70;;;;;;5012788;28;20034;-75
2023/07/02 11:41:53;;;;;;;30.45;27.25;;;25.00;96.80;;;;;;5012598;28;20038;-75
2023/07/02 11:44:20;;;;;;;32.80;29.65;;;25.00;97.50;;;;;;5012910;28;20034;-75
2023/07/02 11:46:46;;;;;;;34.10;31.05;;;25.00;96.60;;;;;;5011433;28;20042;-75
2023/07/02 11:49:13;;;;;;;34.83;31.38;;;25.10;97.20;;;;;;5012738;28;20042;-75
2023/07/02 11:51:39;;;;;;;38.15;35.03;;;25.20;96.40;;;;;;5011904;28;20030;-75
2023/07/02 11:54:06;;;;;;;40.17;36.70;;;25.40;96.00;;;;;;5012582;28;20384;-75
2023/07/02 11:56:32;;;;;;;47.35;43.70;;;25.40;95.70;;;;;;5012432;28;20033;-75
2023/07/02 11:58:58;;;;;;;35.38;32.35;;;25.40;94.90;;;;;;5012628;28;20053;-75
2023/07/02 12:01:24;;;;;;;33.05;30.15;;;25.60;96.10;;;;;;5011541;28;20041;-75
2023/07/02 12:03:50;;;;;;;41.35;37.80;;;25.90;96.80;;;;;;5012613;28;20475;-75
2023/07/02 12:06:16;;;;;;;58.80;54.53;;;26.10;95.70;;;;;;5012043;28;20050;-75
2023/07/02 12:08:42;;;;;;;45.08;41.22;;;26.10;95.40;;;;;;5012415;28;20386;-75
2023/07/02 12:11:08;;;;;;;39.15;35.42;;;26.00;95.10;;;;;;5012270;28;20045;-74
2023/07/02 12:13:34;;;;;;;38.22;35.17;;;26.00;95.60;;;;;;5012283;28;20026;-74
2023/07/02 12:16:01;;;;;;;44.70;41.20;;;26.20;95.70;;;;;;5043037;28;20034;-74
2023/07/02 12:18:27;;;;;;;54.33;50.38;;;26.30;95.30;;;;;;5012583;28;20038;-75
2023/07/02 12:20:53;;;;;;;46.63;42.85;;;26.20;94.70;;;;;;5012093;28;20037;-74
2023/07/02 12:23:19;;;;;;;38.20;35.05;;;26.00;94.50;;;;;;5012365;28;20030;-75
2023/07/02 12:25:45;;;;;;;39.65;36.40;;;26.00;94.90;;;;;;5012172;28;20045;-75
2023/07/02 12:28:11;;;;;;;39.97;36.60;;;25.90;94.90;;;;;;5012149;28;20468;-75
2023/07/02 12:30:37;;;;;;;38.92;35.67;;;26.00;94.80;;;;;;5011272;28;20046;-75